createdAt,value
2022-10-03T00:01:47.645Z,158949.69
2022-10-03T00:04:46.542Z,158952.38
2022-10-03T00:07:37.291Z,158949.69
2022-10-03T00:10:24.538Z,158953.72
2022-10-03T00:13:21.461Z,158947.03
2022-10-03T00:16:11.131Z,158956.34
2022-10-03T00:18:58.430Z,158972.34
2022-10-03T00:21:48.656Z,158971.03
2022-10-03T00:24:55.800Z,158952.38
2022-10-03T00:27:41.977Z,158939.06
2022-10-03T00:30:31.458Z,158924.38
2022-10-03T00:33:28.874Z,158932.38
2022-10-03T00:36:36.063Z,158936.34
2022-10-03T00:39:31.970Z,158919.03
2022-10-03T00:42:45.324Z,158939.06
2022-10-03T00:45:20.117Z,158937.72
2022-10-03T00:48:13.190Z,158941.69
2022-10-03T00:51:13.509Z,158945.72
2022-10-03T00:53:50.073Z,158944.41
2022-10-03T00:56:40.000Z,158941.69
2022-10-03T00:59:39.090Z,158944.41
2022-10-03T01:02:44.353Z,158943.03
2022-10-03T01:05:43.468Z,158936.34
2022-10-03T01:08:42.513Z,158944.41
2022-10-03T01:11:30.429Z,158941.69
2022-10-03T01:14:34.593Z,158928.34
2022-10-03T01:17:20.486Z,158933.72
2022-10-03T01:19:54.815Z,158941.69
2022-10-03T01:22:44.553Z,158941.69
2022-10-03T01:25:51.464Z,158932.38
2022-10-03T01:28:49.420Z,158933.72
2022-10-03T01:31:26.059Z,158931.06
2022-10-03T01:34:01.722Z,158935.03
2022-10-03T01:36:35.443Z,158944.41
2022-10-03T01:39:17.774Z,158951.00
2022-10-03T01:42:07.844Z,158924.38
2022-10-03T01:45:03.346Z,158952.38
2022-10-03T01:47:39.050Z,158969.69
2022-10-03T01:50:32.009Z,158961.72
2022-10-03T01:53:09.651Z,158968.38
2022-10-03T01:56:07.708Z,158975.03
2022-10-03T01:59:13.838Z,158976.38
2022-10-03T02:01:50.125Z,158988.38
2022-10-03T02:04:29.566Z,158981.72
2022-10-03T02:07:22.350Z,158985.69
2022-10-03T02:09:54.664Z,158989.69
2022-10-03T02:12:28.324Z,158983.03
2022-10-03T02:15:08.992Z,158987.06
2022-10-03T02:17:55.589Z,158988.38
2022-10-03T02:20:48.700Z,158991.03
2022-10-03T02:23:28.513Z,158985.69
2022-10-03T02:26:27.313Z,159007.00
2022-10-03T02:29:09.108Z,159004.38
2022-10-03T02:32:15.354Z,159000.34
2022-10-03T02:35:08.220Z,158993.72
2022-10-03T02:37:47.423Z,158997.69
2022-10-03T02:41:01.399Z,159000.34
2022-10-03T02:43:48.780Z,158992.34
2022-10-03T02:46:41.933Z,158992.34
2022-10-03T02:49:29.070Z,158997.69
2022-10-03T02:52:24.284Z,158984.34
2022-10-03T02:55:29.400Z,158976.38
2022-10-03T02:58:26.572Z,158983.03
2022-10-03T03:01:13.835Z,158999.03
2022-10-03T03:03:54.271Z,158992.34
2022-10-03T03:06:33.500Z,158995.06
2022-10-03T03:09:29.894Z,158997.69
2022-10-03T03:12:24.187Z,159003.03
2022-10-03T03:15:29.334Z,159003.03
2022-10-03T03:18:29.478Z,158996.38
2022-10-03T03:21:04.009Z,158988.38
2022-10-03T03:23:48.145Z,158995.06
2022-10-03T03:26:57.829Z,158993.72
2022-10-03T03:29:42.559Z,159001.72
2022-10-03T03:32:31.200Z,158999.03
2022-10-03T03:35:07.667Z,159012.38
2022-10-03T03:38:05.993Z,159003.03
2022-10-03T03:40:43.409Z,158997.69
2022-10-03T03:43:30.475Z,158991.03
2022-10-03T03:46:19.983Z,159000.34
2022-10-03T03:48:54.431Z,159001.72
2022-10-03T03:51:25.004Z,159008.38
2022-10-03T03:54:06.109Z,159000.34
2022-10-03T03:57:04.898Z,158999.03
2022-10-03T03:59:42.243Z,159004.38
2022-10-03T04:02:29.655Z,159009.72
2022-10-03T04:05:15.260Z,159023.06
2022-10-03T04:08:12.863Z,159027.03
2022-10-03T04:10:45.903Z,159028.34
2022-10-03T04:13:40.247Z,159039.03
2022-10-03T04:16:44.160Z,159035.03
2022-10-03T04:19:13.789Z,159052.38
2022-10-03T04:22:03.109Z,159053.69
2022-10-03T04:24:57.357Z,159052.38
2022-10-03T04:27:56.649Z,159041.69
2022-10-03T04:30:49.110Z,159031.06
2022-10-03T04:33:54.999Z,159039.03
2022-10-03T04:36:42.194Z,159031.06
2022-10-03T04:39:28.437Z,159040.38
2022-10-03T04:42:18.390Z,159029.72
2022-10-03T04:45:05.149Z,159037.72
2022-10-03T04:47:50.004Z,159035.03
2022-10-03T04:50:36.185Z,159044.38
2022-10-03T04:53:43.266Z,159037.72
2022-10-03T04:56:30.288Z,159056.34
2022-10-03T04:59:23.877Z,159051.06
2022-10-03T05:02:03.959Z,159041.69
2022-10-03T05:05:13.377Z,159057.72
2022-10-03T05:08:15.917Z,159067.03
2022-10-03T05:11:13.114Z,159075.03
2022-10-03T05:14:19.129Z,159076.38
2022-10-03T05:17:25.182Z,159089.72
2022-10-03T05:20:27.349Z,159096.38
2022-10-03T05:23:12.671Z,159107.06
2022-10-03T05:26:32.356Z,159109.72
2022-10-03T05:29:19.544Z,159112.38
2022-10-03T05:32:17.967Z,159120.41
2022-10-03T05:34:55.582Z,159136.41
2022-10-03T05:38:05.549Z,159137.72
2022-10-03T05:40:36.947Z,159141.75
2022-10-03T05:43:28.544Z,159152.41
2022-10-03T05:46:22.274Z,159161.72
2022-10-03T05:49:29.321Z,159155.06
2022-10-03T05:52:04.999Z,159171.09
2022-10-03T05:54:48.320Z,159187.09
2022-10-03T05:57:27.797Z,159183.06
2022-10-03T06:00:21.092Z,159200.44
2022-10-03T06:03:11.388Z,159224.44
2022-10-03T06:05:42.159Z,159224.44
2022-10-03T06:08:42.170Z,159239.09
2022-10-03T06:11:34.714Z,159247.16
2022-10-03T06:14:27.699Z,159248.47
2022-10-03T06:17:05.085Z,159255.16
2022-10-03T06:19:55.363Z,159255.16
2022-10-03T06:22:42.951Z,159267.13
2022-10-03T06:25:48.982Z,159255.16
2022-10-03T06:28:20.304Z,159253.78
2022-10-03T06:31:19.413Z,159252.44
2022-10-03T06:34:17.905Z,159247.16
2022-10-03T06:36:45.898Z,159252.44
2022-10-03T06:39:43.775Z,159241.81
2022-10-03T06:42:36.708Z,159235.13
2022-10-03T06:45:16.726Z,159232.44
2022-10-03T06:48:00.953Z,159221.78
2022-10-03T06:51:00.336Z,159219.13
2022-10-03T06:53:43.519Z,159227.13
2022-10-03T06:56:50.233Z,159236.47
2022-10-03T06:59:41.171Z,159229.78
2022-10-03T07:02:46.538Z,159263.16
2022-10-03T07:05:52.313Z,159272.53
2022-10-03T07:08:45.528Z,159279.19
2022-10-03T07:11:39.154Z,159293.88
2022-10-03T07:14:38.934Z,159311.25
2022-10-03T07:17:19.509Z,159312.56
2022-10-03T07:20:20.662Z,159332.59
2022-10-03T07:23:22.524Z,159345.94
2022-10-03T07:26:26.987Z,159373.97
2022-10-03T07:29:19.250Z,159369.97
2022-10-03T07:32:25.098Z,159395.34
2022-10-03T07:35:53.901Z,159410.00
2022-10-03T07:39:01.180Z,159419.34
2022-10-03T07:41:42.371Z,159447.38
2022-10-03T07:44:19.420Z,159462.06
2022-10-03T07:47:18.907Z,159466.06
2022-10-03T07:49:56.643Z,159476.72
2022-10-03T07:52:26.499Z,159478.06
2022-10-03T07:55:08.592Z,159499.41
2022-10-03T07:57:45.827Z,159510.13
2022-10-03T08:00:30.277Z,159507.44
2022-10-03T08:03:36.618Z,159511.44
2022-10-03T08:06:24.882Z,159510.13
2022-10-03T08:09:19.892Z,159512.78
2022-10-03T08:12:25.103Z,159524.81
2022-10-03T08:15:22.212Z,159542.16
2022-10-03T08:18:03.525Z,159543.53
2022-10-03T08:20:48.910Z,159574.22
2022-10-03T08:23:29.324Z,159583.56
2022-10-03T08:26:13.209Z,159584.88
2022-10-03T08:29:26.581Z,159591.56
2022-10-03T08:32:05.401Z,159583.56
2022-10-03T08:34:59.818Z,159592.94
2022-10-03T08:38:05.442Z,159578.19
2022-10-03T08:40:45.869Z,159568.88
2022-10-03T08:43:42.360Z,159560.84
2022-10-03T08:46:19.407Z,159560.84
2022-10-03T08:48:56.848Z,159559.53
2022-10-03T08:51:43.338Z,159534.13
2022-10-03T08:54:51.796Z,159536.84
2022-10-03T08:57:25.012Z,159536.84
2022-10-03T09:00:31.501Z,159564.88
2022-10-03T09:03:31.848Z,159575.53
2022-10-03T09:06:24.547Z,159590.22
2022-10-03T09:09:14.027Z,159600.94
2022-10-03T09:12:15.692Z,159603.59
2022-10-03T09:15:12.228Z,159578.19
2022-10-03T09:18:18.954Z,159534.13
2022-10-03T09:21:07.479Z,159491.41
2022-10-03T09:24:03.378Z,159486.06
2022-10-03T09:26:49.929Z,159464.72
2022-10-03T09:29:55.642Z,159476.72
2022-10-03T09:32:43.315Z,159479.38
2022-10-03T09:35:52.335Z,159496.78
2022-10-03T09:38:46.099Z,159531.50
2022-10-03T09:41:52.624Z,159548.81
2022-10-03T09:44:57.952Z,159560.84
2022-10-03T09:47:39.281Z,159562.19
2022-10-03T09:50:38.480Z,159579.56
2022-10-03T09:53:49.891Z,159587.56
2022-10-03T09:56:44.902Z,159619.59
2022-10-03T09:59:31.881Z,159624.94
2022-10-03T10:02:13.246Z,159659.69
2022-10-03T10:04:56.343Z,159663.72
2022-10-03T10:07:47.071Z,159669.03
2022-10-03T10:10:31.720Z,159670.41
2022-10-03T10:13:56.049Z,159663.72
2022-10-03T10:16:52.799Z,159666.38
2022-10-03T10:20:05.162Z,159646.31
2022-10-03T10:22:52.456Z,159632.97
2022-10-03T10:25:58.816Z,159628.97
2022-10-03T10:29:05.493Z,159635.66
2022-10-03T10:31:53.243Z,159611.59
2022-10-03T10:34:52.230Z,159578.19
2022-10-03T10:38:03.172Z,159536.84
2022-10-03T10:41:03.589Z,159523.50
2022-10-03T10:43:51.340Z,159531.50
2022-10-03T10:46:47.619Z,159552.84
2022-10-03T10:49:38.982Z,159559.53
2022-10-03T10:52:36.370Z,159559.53
2022-10-03T10:55:25.679Z,159592.94
2022-10-03T10:58:23.518Z,159604.91
2022-10-03T11:01:28.871Z,159600.94
2022-10-03T11:04:18.849Z,159598.22
2022-10-03T11:06:53.671Z,159626.28
2022-10-03T11:09:59.528Z,159677.06
2022-10-03T11:12:42.197Z,159705.13
2022-10-03T11:15:48.434Z,159733.19
2022-10-03T11:18:18.855Z,159714.50
2022-10-03T11:21:24.747Z,159685.13
2022-10-03T11:24:30.161Z,159670.41
2022-10-03T11:27:23.173Z,159691.81
2022-10-03T11:30:16.128Z,159737.22
2022-10-03T11:33:14.209Z,159765.28
2022-10-03T11:36:20.341Z,159774.59
2022-10-03T11:38:54.209Z,159801.34
2022-10-03T11:41:41.294Z,159837.41
2022-10-03T11:44:40.571Z,159861.50
2022-10-03T11:47:33.262Z,159853.50
2022-10-03T11:50:45.831Z,159840.13
2022-10-03T11:53:27.290Z,159820.06
2022-10-03T11:55:55.754Z,159849.47
2022-10-03T11:58:42.018Z,159877.53
2022-10-03T12:01:16.505Z,159939.00
2022-10-03T12:04:09.267Z,159972.41
2022-10-03T12:07:17.642Z,159961.72
2022-10-03T12:10:08.724Z,159969.75
2022-10-03T12:12:50.682Z,159991.13
2022-10-03T12:15:35.028Z,159993.78
2022-10-03T12:18:21.908Z,159976.44
2022-10-03T12:21:09.139Z,159928.31
2022-10-03T12:23:43.659Z,159896.25
2022-10-03T12:26:17.764Z,159898.91
2022-10-03T12:28:52.709Z,159881.56
2022-10-03T12:31:46.713Z,159876.19
2022-10-03T12:34:33.421Z,159896.25
2022-10-03T12:37:31.544Z,159956.38
2022-10-03T12:40:16.154Z,159993.78
2022-10-03T12:43:05.499Z,160039.25
2022-10-03T12:45:44.517Z,160063.38
2022-10-03T12:48:43.097Z,160100.84
2022-10-03T12:51:42.783Z,160099.47
2022-10-03T12:54:45.089Z,160066.06
2022-10-03T12:57:51.080Z,159988.47
2022-10-03T13:00:21.693Z,159960.41
2022-10-03T13:03:04.719Z,159945.72
2022-10-03T13:05:44.910Z,159910.94
2022-10-03T13:08:51.858Z,159926.97
2022-10-03T13:11:58.745Z,159918.97
2022-10-03T13:14:37.029Z,159929.63
2022-10-03T13:17:27.154Z,159952.38
2022-10-03T13:20:00.883Z,160004.50
2022-10-03T13:22:35.228Z,160044.63
2022-10-03T13:25:17.237Z,160082.09
2022-10-03T13:27:52.240Z,160087.47
2022-10-03T13:30:24.850Z,160098.13
2022-10-03T13:32:58.342Z,160124.88
2022-10-03T13:35:58.708Z,160120.84
2022-10-03T13:38:38.126Z,160112.84
2022-10-03T13:41:12.353Z,160103.50
2022-10-03T13:43:45.143Z,160082.09
2022-10-03T13:46:17.697Z,160070.06
2022-10-03T13:48:55.124Z,160059.38
2022-10-03T13:51:44.825Z,160068.72
2022-10-03T13:54:39.999Z,160049.94
2022-10-03T13:57:16.808Z,160032.59
2022-10-03T14:00:13.560Z,160040.59
2022-10-03T14:03:18.333Z,160016.56
2022-10-03T14:06:11.362Z,160012.53
2022-10-03T14:08:58.881Z,160005.84
2022-10-03T14:11:44.114Z,159993.78
2022-10-03T14:14:35.216Z,159983.13
2022-10-03T14:17:31.939Z,159963.06
2022-10-03T14:20:19.861Z,159960.41
2022-10-03T14:23:06.483Z,159964.38
2022-10-03T14:25:41.663Z,159937.63
2022-10-03T14:28:41.780Z,159931.00
2022-10-03T14:31:19.143Z,159922.94
2022-10-03T14:33:56.782Z,159904.25
2022-10-03T14:36:43.258Z,159901.56
2022-10-03T14:39:37.407Z,159892.22
2022-10-03T14:42:37.629Z,159890.91
2022-10-03T14:45:13.854Z,159882.88
2022-10-03T14:47:43.600Z,159878.84
2022-10-03T14:50:24.402Z,159861.50
2022-10-03T14:53:02.551Z,159860.13
2022-10-03T14:55:40.035Z,159854.81
2022-10-03T14:58:29.749Z,159842.78
2022-10-03T15:01:25.020Z,159820.06
2022-10-03T15:04:32.596Z,159828.06
2022-10-03T15:07:05.500Z,159820.06
2022-10-03T15:09:42.803Z,159802.66
2022-10-03T15:12:16.433Z,159797.34
2022-10-03T15:14:48.651Z,159763.94
2022-10-03T15:17:23.261Z,159765.28
2022-10-03T15:19:56.523Z,159753.22
2022-10-03T15:22:42.918Z,159758.59
2022-10-03T15:25:18.596Z,159738.53
2022-10-03T15:27:50.279Z,159731.84
2022-10-03T15:30:27.881Z,159727.88
2022-10-03T15:33:16.942Z,159699.81
2022-10-03T15:35:49.781Z,159690.44
2022-10-03T15:38:27.349Z,159643.66
2022-10-03T15:41:20.365Z,159659.69
2022-10-03T15:43:52.836Z,159650.34
2022-10-03T15:46:40.285Z,159646.31
2022-10-03T15:49:12.211Z,159624.94
2022-10-03T15:51:40.728Z,159616.94
2022-10-03T15:54:13.338Z,159607.63
2022-10-03T15:56:48.859Z,159591.56
2022-10-03T15:59:45.870Z,159563.50
2022-10-03T16:02:21.524Z,159554.19
2022-10-03T16:04:54.977Z,159563.50
2022-10-03T16:07:42.324Z,159534.13
2022-10-03T16:10:34.770Z,159530.16
2022-10-03T16:13:15.400Z,159526.13
2022-10-03T16:16:10.703Z,159528.78
2022-10-03T16:18:57.234Z,159508.81
2022-10-03T16:21:45.238Z,159466.06
2022-10-03T16:24:21.865Z,159470.06
2022-10-03T16:26:56.532Z,159466.06
2022-10-03T16:29:29.535Z,159462.06
2022-10-03T16:32:09.581Z,159444.72
2022-10-03T16:34:43.675Z,159426.00
2022-10-03T16:37:26.574Z,159403.34
2022-10-03T16:40:03.773Z,159397.97
2022-10-03T16:42:46.044Z,159367.31
2022-10-03T16:45:38.152Z,159352.56
2022-10-03T16:48:31.298Z,159303.19
2022-10-03T16:51:00.024Z,159311.25
2022-10-03T16:53:29.578Z,159299.22
2022-10-03T16:56:18.305Z,159268.50
2022-10-03T16:58:55.715Z,159253.78
2022-10-03T17:01:42.982Z,159279.19
2022-10-03T17:04:33.230Z,159289.91
2022-10-03T17:07:04.725Z,159277.88
2022-10-03T17:09:55.435Z,159283.22
2022-10-03T17:12:30.453Z,159265.81
2022-10-03T17:15:08.170Z,159255.16
2022-10-03T17:18:03.155Z,159251.13
2022-10-03T17:20:44.529Z,159240.47
2022-10-03T17:23:27.289Z,159240.47
2022-10-03T17:26:05.587Z,159220.47
2022-10-03T17:29:11.429Z,159203.09
2022-10-03T17:31:46.036Z,159183.06
2022-10-03T17:34:17.512Z,159165.75
2022-10-03T17:37:24.617Z,159163.09
2022-10-03T17:40:11.882Z,159145.72
2022-10-03T17:42:41.684Z,159125.72
2022-10-03T17:45:17.448Z,159099.03
2022-10-03T17:48:11.424Z,159089.72
2022-10-03T17:51:15.368Z,159071.06
2022-10-03T17:53:48.153Z,159077.69
2022-10-03T17:56:21.391Z,159072.41
2022-10-03T17:59:03.621Z,159071.06
2022-10-03T18:01:37.830Z,159076.38
2022-10-03T18:04:11.862Z,159083.03
2022-10-03T18:06:43.563Z,159073.72
2022-10-03T18:09:17.598Z,159064.41
2022-10-03T18:11:50.377Z,159052.38
2022-10-03T18:15:17.428Z,159072.41
2022-10-03T18:17:49.459Z,159081.72
2022-10-03T18:20:42.197Z,159101.72
2022-10-03T18:23:53.216Z,159105.69
2022-10-03T18:26:37.136Z,159088.38
2022-10-03T18:29:11.703Z,159101.72
2022-10-03T18:31:45.491Z,159105.69
2022-10-03T18:34:20.697Z,159101.72
2022-10-03T18:36:51.424Z,159089.72
2022-10-03T18:39:20.236Z,159085.75
2022-10-03T18:41:53.977Z,159075.03
2022-10-03T18:44:24.376Z,159072.41
2022-10-03T18:47:16.637Z,159047.03
2022-10-03T18:49:57.682Z,159036.41
2022-10-03T18:52:32.633Z,159027.03
2022-10-03T18:55:34.726Z,159027.03
2022-10-03T18:58:13.986Z,159035.03
2022-10-03T19:01:01.689Z,159023.06
2022-10-03T19:03:39.708Z,159032.38
2022-10-03T19:06:30.038Z,159025.69
2022-10-03T19:09:09.681Z,159027.03
2022-10-03T19:11:45.322Z,159016.38
2022-10-03T19:14:25.789Z,159005.69
2022-10-03T19:17:23.579Z,158941.69
2022-10-03T19:19:59.042Z,159001.72
2022-10-03T19:22:28.532Z,159007.00
2022-10-03T19:24:59.500Z,158991.03
2022-10-03T19:27:52.657Z,158976.38
2022-10-03T19:30:26.418Z,158964.34
2022-10-03T19:32:59.715Z,158993.72
2022-10-03T19:35:30.384Z,158984.34
2022-10-03T19:38:28.289Z,158988.38
2022-10-03T19:41:01.945Z,158997.69
2022-10-03T19:43:43.416Z,159001.72
2022-10-03T19:46:15.347Z,159029.72
2022-10-03T19:48:52.283Z,159040.38
2022-10-03T19:51:25.623Z,159057.72
2022-10-03T19:53:57.623Z,159072.41
2022-10-03T19:56:31.088Z,159075.03
2022-10-03T19:59:06.457Z,159084.38
2022-10-03T20:01:49.091Z,159080.38
2022-10-03T20:04:36.479Z,159063.03
2022-10-03T20:07:13.130Z,159079.06
2022-10-03T20:09:56.497Z,159077.69
2022-10-03T20:12:29.492Z,159075.03
2022-10-03T20:15:18.369Z,159079.06
2022-10-03T20:17:47.718Z,159080.38
2022-10-03T20:20:23.497Z,159085.75
2022-10-03T20:22:55.070Z,159107.06
2022-10-03T20:25:44.093Z,159107.06
2022-10-03T20:28:21.839Z,159108.41
2022-10-03T20:30:53.132Z,159120.41
2022-10-03T20:33:25.732Z,159141.75
2022-10-03T20:36:01.403Z,159149.75
2022-10-03T20:39:07.399Z,159133.72
2022-10-03T20:41:35.717Z,159147.06
2022-10-03T20:44:15.444Z,159145.72
2022-10-03T20:47:06.568Z,159140.38
2022-10-03T20:49:48.926Z,159147.06
2022-10-03T20:52:22.531Z,159135.09
2022-10-03T20:54:53.082Z,159133.72
2022-10-03T20:57:33.135Z,159131.06
2022-10-03T21:00:10.460Z,159117.72
2022-10-03T21:02:51.571Z,159104.38
2022-10-03T21:05:24.434Z,159099.03
2022-10-03T21:07:56.790Z,159089.72
2022-10-03T21:10:37.308Z,159087.06
2022-10-03T21:13:10.404Z,159077.69
2022-10-03T21:15:54.016Z,159089.72
2022-10-03T21:18:27.572Z,159072.41
2022-10-03T21:21:20.817Z,159084.38
2022-10-03T21:24:11.346Z,159079.06
2022-10-03T21:27:11.457Z,159072.41
2022-10-03T21:29:41.008Z,159060.38
2022-10-03T21:32:27.693Z,159080.38
2022-10-03T21:35:01.376Z,159059.06
2022-10-03T21:38:07.832Z,159068.38
2022-10-03T21:40:54.614Z,159063.03
2022-10-03T21:43:48.331Z,159049.69
2022-10-03T21:46:29.831Z,159065.72
2022-10-03T21:49:02.188Z,159055.03
2022-10-03T21:51:58.860Z,159060.38
2022-10-03T21:55:04.561Z,159053.69
2022-10-03T21:57:55.595Z,159051.06
2022-10-03T22:00:30.360Z,159043.06
2022-10-03T22:03:08.557Z,159041.69
2022-10-03T22:05:49.148Z,159040.38
2022-10-03T22:08:26.517Z,159040.38
2022-10-03T22:11:13.964Z,159035.03
2022-10-03T22:13:47.542Z,159031.06
2022-10-03T22:16:51.311Z,159012.38
2022-10-03T22:19:22.877Z,158995.06
2022-10-03T22:22:00.419Z,159009.72
2022-10-03T22:25:05.361Z,158996.38
2022-10-03T22:27:50.131Z,159003.03
2022-10-03T22:30:20.230Z,159008.38
2022-10-03T22:33:14.610Z,159005.69
2022-10-03T22:35:52.003Z,159011.03
2022-10-03T22:38:25.670Z,159004.38
2022-10-03T22:40:55.425Z,159011.03
2022-10-03T22:43:24.931Z,159033.69
2022-10-03T22:45:56.544Z,159031.06
2022-10-03T22:48:33.617Z,159032.38
2022-10-03T22:51:03.553Z,159036.41
2022-10-03T22:53:35.892Z,159043.06
2022-10-03T22:56:42.655Z,159052.38
2022-10-03T22:59:31.976Z,159061.69
2022-10-03T23:02:02.752Z,159053.69
2022-10-03T23:04:50.055Z,159059.06
2022-10-03T23:07:26.686Z,159059.06
2022-10-03T23:10:26.870Z,159060.38
2022-10-03T23:13:00.967Z,159068.38
2022-10-03T23:15:30.774Z,159072.41
2022-10-03T23:18:08.057Z,159064.41
2022-10-03T23:21:03.652Z,159075.03
2022-10-03T23:23:36.121Z,159067.03
2022-10-03T23:26:26.269Z,159069.69
2022-10-03T23:29:00.638Z,159075.03
2022-10-03T23:32:06.098Z,159077.69
2022-10-03T23:34:40.513Z,159073.72
2022-10-03T23:37:14.644Z,159031.06
2022-10-03T23:39:55.011Z,159075.03
2022-10-03T23:42:46.014Z,159071.06
2022-10-03T23:45:19.893Z,159067.03
2022-10-03T23:48:14.832Z,159069.69
2022-10-03T23:50:47.601Z,159069.69
2022-10-03T23:53:28.118Z,159073.72
2022-10-03T23:55:57.708Z,159075.03
2022-10-03T23:58:31.972Z,159071.06
